Time;durP1;ratioP1;P1;durP2;ratioP2;P2;SDS_P1;SDS_P2;PMS_P1;PMS_P2;Temp;Humidity;BMP_temperature;BMP_pressure;BME280_temperature;BME280_humidity;BME280_pressure;Samples;Min_cycle;Max_cycle;Signal;HPM_P1;HPM_P2
2021/05/31 00:02:02;;;;;;;10.47;9.47;;;;;;;13.67;91.59;94872.16;5076267;28;20794;-82
2021/05/31 00:04:30;;;;;;;9.07;8.17;;;;;;;13.71;91.56;94880.59;5076639;28;20468;-82
2021/05/31 00:07:03;;;;;;;8.50;7.70;;;;;;;13.70;91.40;94874.50;5076167;28;20856;-82
2021/05/31 00:09:30;;;;;;;10.57;9.13;;;;;;;13.71;90.77;94872.69;5076074;28;20889;-81
2021/05/31 00:11:56;;;;;;;10.60;8.37;;;;;;;13.76;90.64;94870.44;5024539;28;20444;-82
2021/05/31 00:14:23;;;;;;;10.57;8.70;;;;;;;13.79;90.79;94872.75;5076351;28;20502;-82
2021/05/31 00:16:50;;;;;;;8.17;7.43;;;;;;;13.81;90.43;94873.44;5076239;28;20425;-82
2021/05/31 00:19:19;;;;;;;9.40;8.50;;;;;;;13.81;90.88;94876.09;5076040;28;20452;-82
2021/05/31 00:21:47;;;;;;;10.60;9.33;;;;;;;13.83;90.97;94867.03;5076129;28;20822;-82
2021/05/31 00:24:13;;;;;;;10.07;9.17;;;;;;;13.83;90.88;94866.22;5075732;28;20482;-82
2021/05/31 00:26:40;;;;;;;8.77;7.93;;;;;;;13.86;90.80;94871.19;5075857;28;20483;-82
2021/05/31 00:29:07;;;;;;;8.60;7.80;;;;;;;13.90;90.86;94868.13;5076159;28;20501;-82
2021/05/31 00:31:34;;;;;;;8.07;7.37;;;;;;;13.89;91.19;94866.47;5075765;28;20441;-82
2021/05/31 00:34:00;;;;;;;9.97;8.27;;;;;;;13.92;91.30;94860.03;5075519;28;20944;-82
2021/05/31 00:36:27;;;;;;;9.33;8.53;;;;;;;13.89;91.25;94858.53;5075800;28;20435;-82
2021/05/31 00:38:55;;;;;;;10.20;8.83;;;;;;;13.88;91.82;94858.69;5075563;28;20453;-82
2021/05/31 00:41:23;;;;;;;11.03;7.90;;;;;;;13.86;92.04;94868.53;5075210;28;20808;-82
2021/05/31 00:43:50;;;;;;;9.33;8.53;;;;;;;13.87;91.88;94862.28;5057079;28;20452;-81
2021/05/31 00:46:17;;;;;;;9.93;8.60;;;;;;;13.87;91.73;94857.00;5075812;28;20458;-82
2021/05/31 00:48:44;;;;;;;9.13;7.80;;;;;;;13.86;91.73;94865.91;5075284;28;20478;-82
2021/05/31 00:51:14;;;;;;;9.60;8.50;;;;;;;13.86;90.78;94855.34;5075703;28;20940;-81
2021/05/31 00:53:41;;;;;;;8.63;7.70;;;;;;;13.86;90.38;94850.91;5075589;28;20466;-82
2021/05/31 00:56:08;;;;;;;11.03;8.33;;;;;;;13.85;90.10;94845.78;5075224;28;20479;-82
2021/05/31 00:58:36;;;;;;;9.40;8.50;;;;;;;13.83;90.41;94847.75;5075156;28;20476;-82
2021/05/31 01:01:05;;;;;;;8.37;7.57;;;;;;;13.83;89.92;94845.09;5075248;28;20431;-82
2021/05/31 01:03:32;;;;;;;8.87;8.07;;;;;;;13.81;90.18;94845.25;5075611;28;20460;-82
2021/05/31 01:06:02;;;;;;;8.70;7.83;;;;;;;13.84;90.21;94846.75;5075185;28;20435;-82
2021/05/31 01:08:32;;;;;;;9.83;8.83;;;;;;;13.82;89.98;94844.28;5075329;28;20468;-82
2021/05/31 01:11:03;;;;;;;10.33;7.57;;;;;;;13.77;90.31;94832.53;5075309;28;20450;-83
2021/05/31 01:13:39;;;;;;;9.00;7.90;;;;;;;13.80;90.34;94837.50;5075028;28;20925;-83
2021/05/31 01:16:12;;;;;;;15.20;8.20;;;;;;;13.81;90.67;94831.25;5074899;28;20799;-82
2021/05/31 01:18:40;;;;;;;9.97;9.00;;;;;;;13.83;91.44;94838.03;5008229;28;20512;-82
2021/05/31 01:21:24;;;;;;;8.30;7.50;;;;;;;13.83;91.13;94831.91;5075120;28;20838;-82
2021/05/31 01:24:12;;;;;;;8.80;8.07;;;;;;;13.87;90.65;94830.63;5075248;28;20463;-82
2021/05/31 01:26:47;;;;;;;9.00;7.67;;;;;;;13.88;90.45;94833.16;5075546;28;20527;-82
2021/05/31 01:29:15;;;;;;;8.43;7.53;;;;;;;13.92;89.74;94831.03;5074949;28;20526;-82
2021/05/31 01:31:46;;;;;;;13.00;9.33;;;;;;;13.92;90.05;94828.41;5075416;28;20439;-82
2021/05/31 01:34:34;;;;;;;9.10;8.27;;;;;;;13.90;89.83;94825.91;5074919;28;20439;-82
2021/05/31 01:37:04;;;;;;;11.30;8.40;;;;;;;13.90;89.67;94827.72;5074554;28;20453;-82
2021/05/31 01:39:35;;;;;;;9.63;8.73;;;;;;;13.89;89.86;94821.63;5074422;28;20494;-83
2021/05/31 01:42:02;;;;;;;8.83;8.13;;;;;;;13.91;89.51;94826.75;5074774;28;20454;-83
2021/05/31 01:44:31;;;;;;;11.03;8.83;;;;;;;13.88;89.97;94824.41;5074512;28;20459;-83
2021/05/31 01:46:58;;;;;;;9.30;8.30;;;;;;;13.89;90.41;94828.69;5074251;28;20467;-82
2021/05/31 01:49:25;;;;;;;8.63;7.83;;;;;;;13.86;90.78;94824.53;5074164;28;20465;-83
2021/05/31 01:51:52;;;;;;;8.90;7.93;;;;;;;13.83;90.56;94819.56;5074481;28;20463;-82
2021/05/31 01:54:22;;;;;;;9.00;8.10;;;;;;;13.83;90.89;94824.84;5074549;28;20858;-82
2021/05/31 01:56:50;;;;;;;8.87;8.10;;;;;;;13.84;91.02;94815.09;5074463;28;20470;-82
2021/05/31 01:59:18;;;;;;;12.97;8.63;;;;;;;13.84;91.31;94815.09;5074282;28;20437;-82
2021/05/31 02:01:47;;;;;;;7.50;6.90;;;;;;;13.86;90.97;94810.50;5074244;28;20436;-82
2021/05/31 02:04:16;;;;;;;8.80;8.00;;;;;;;13.83;91.39;94805.53;5074066;28;20443;-82
2021/05/31 02:06:42;;;;;;;8.13;7.43;;;;;;;13.86;90.89;94799.97;5073788;28;20430;-83
2021/05/31 02:09:09;;;;;;;9.00;8.10;;;;;;;13.81;90.74;94797.78;5073849;28;20891;-82
2021/05/31 02:11:43;;;;;;;9.73;7.43;;;;;;;13.80;90.72;94793.50;5022966;28;20439;-83
2021/05/31 02:14:15;;;;;;;9.03;7.80;;;;;;;13.73;90.40;94803.00;5073979;28;20869;-82
2021/05/31 02:16:47;;;;;;;8.93;7.97;;;;;;;13.74;90.33;94790.63;5073670;28;20468;-83
2021/05/31 02:19:19;;;;;;;8.57;7.77;;;;;;;13.74;90.62;94798.56;5024412;28;20438;-82
2021/05/31 02:21:48;;;;;;;10.03;8.53;;;;;;;13.71;91.42;94793.59;5074499;28;20941;-83
2021/05/31 02:24:15;;;;;;;8.80;8.10;;;;;;;13.70;91.38;94794.56;5073533;28;20433;-82
2021/05/31 02:26:42;;;;;;;9.20;7.67;;;;;;;13.64;91.63;94788.91;5073439;28;20476;-82
2021/05/31 02:29:08;;;;;;;9.30;8.50;;;;;;;13.60;91.30;94787.56;5073700;28;20532;-82
2021/05/31 02:31:35;;;;;;;9.83;8.73;;;;;;;13.55;92.15;94789.81;5073487;28;20429;-82
2021/05/31 02:34:02;;;;;;;9.03;8.23;;;;;;;13.56;92.06;94790.63;5073746;28;20473;-83
2021/05/31 02:36:30;;;;;;;9.07;8.17;;;;;;;13.55;91.61;94784.53;5073457;28;20470;-83
2021/05/31 02:38:56;;;;;;;8.53;7.63;;;;;;;13.50;92.02;94781.53;5038467;28;20450;-83
2021/05/31 02:41:23;;;;;;;9.13;8.33;;;;;;;13.55;92.78;94789.81;5073090;28;20457;-82
2021/05/31 02:43:49;;;;;;;8.20;7.50;;;;;;;13.55;92.68;94787.16;5073174;28;20459;-82
2021/05/31 02:46:16;;;;;;;7.80;7.00;;;;;;;13.57;92.70;94790.47;5073645;28;20430;-82
2021/05/31 02:48:43;;;;;;;9.57;8.50;;;;;;;13.59;92.07;94785.91;5073087;28;21004;-82
2021/05/31 02:51:09;;;;;;;10.03;8.40;;;;;;;13.60;91.93;94792.84;5073127;28;20468;-82
2021/05/31 02:53:37;;;;;;;9.13;8.23;;;;;;;13.62;92.48;94795.31;5073345;28;20447;-82
2021/05/31 02:56:06;;;;;;;8.10;7.30;;;;;;;13.64;92.05;94791.56;5072985;28;20543;-82
2021/05/31 02:58:33;;;;;;;9.07;7.70;;;;;;;13.65;91.95;94787.09;5072917;28;20445;-82
2021/05/31 03:00:59;;;;;;;9.83;8.83;;;;;;;13.66;92.89;94787.94;5072985;28;20459;-82
2021/05/31 03:03:26;;;;;;;8.40;7.60;;;;;;;13.67;93.13;94787.78;5072616;28;20933;-82
2021/05/31 03:05:52;;;;;;;11.80;8.40;;;;;;;13.68;92.80;94786.81;5073156;28;20499;-82
2021/05/31 03:08:19;;;;;;;8.70;7.87;;;;;;;13.70;92.50;94790.13;5073201;28;20927;-82
2021/05/31 03:10:47;;;;;;;8.23;7.43;;;;;;;13.69;91.96;94787.63;5021364;28;20501;-82
2021/05/31 03:13:13;;;;;;;7.87;7.20;;;;;;;13.70;91.79;94781.38;5073636;28;21114;-82
2021/05/31 03:15:41;;;;;;;8.60;7.80;;;;;;;13.72;91.23;94789.97;5072771;28;20448;-82
2021/05/31 03:18:08;;;;;;;14.63;7.63;;;;;;;13.74;91.96;94788.00;5072909;28;20447;-82
2021/05/31 03:20:35;;;;;;;8.43;7.47;;;;;;;13.75;91.77;94785.22;5072845;28;20443;-82
2021/05/31 03:23:01;;;;;;;12.33;7.80;;;;;;;13.75;90.92;94785.22;5072939;28;20440;-82
2021/05/31 03:25:28;;;;;;;8.30;7.50;;;;;;;13.79;90.83;94785.72;5072801;28;20440;-82
2021/05/31 03:27:58;;;;;;;7.13;6.40;;;;;;;13.77;91.26;94777.97;5073232;28;20458;-83
2021/05/31 03:30:25;;;;;;;9.03;7.73;;;;;;;13.75;91.09;94779.94;5054499;28;20477;-82
2021/05/31 03:32:52;;;;;;;8.67;7.80;;;;;;;13.75;91.44;94785.22;5073145;28;20457;-82
2021/05/31 03:35:19;;;;;;;12.93;8.00;;;;;;;13.64;92.13;94777.53;5072746;28;20476;-82
2021/05/31 03:37:46;;;;;;;7.90;6.97;;;;;;;13.59;91.13;94779.81;5073019;28;20462;-82
2021/05/31 03:40:14;;;;;;;8.90;8.00;;;;;;;13.55;92.40;94773.97;5072957;28;20427;-82
2021/05/31 03:42:41;;;;;;;7.57;6.63;;;;;;;13.54;92.66;94777.59;5021465;28;20477;-82
2021/05/31 03:45:10;;;;;;;8.77;8.07;;;;;;;13.53;92.84;94773.31;5073039;28;20486;-82
2021/05/31 03:47:37;;;;;;;8.53;7.70;;;;;;;13.56;92.16;94780.91;5072573;28;20502;-82
2021/05/31 03:50:05;;;;;;;8.40;7.70;;;;;;;13.58;92.16;94789.50;5072937;28;20468;-82
2021/05/31 03:52:32;;;;;;;9.90;8.90;;;;;;;13.62;91.92;94787.41;5072594;28;20478;-82
2021/05/31 03:54:59;;;;;;;9.63;8.43;;;;;;;13.65;91.89;94784.47;5072765;28;20804;-82
2021/05/31 03:57:25;;;;;;;10.00;7.47;;;;;;;13.63;92.00;94781.16;5072395;28;20830;-82
2021/05/31 03:59:53;;;;;;;9.57;8.60;;;;;;;13.66;91.62;94782.66;5072339;28;20461;-82
2021/05/31 04:02:21;;;;;;;8.20;7.40;;;;;;;13.72;92.12;94790.78;5037779;28;20486;-82
2021/05/31 04:04:52;;;;;;;11.80;8.80;;;;;;;13.74;91.96;94788.00;5072849;28;20424;-83
2021/05/31 04:11:33;;;;;;;8.03;7.27;;;;;;;13.73;91.41;94788.97;5073009;28;20844;-82
2021/05/31 04:12:56;;;;;;;7.37;6.77;;;;;;;13.75;91.27;94797.56;5029171;28;20441;-81
2021/05/31 04:15:23;;;;;;;11.83;8.90;;;;;;;13.78;91.39;94794.63;5074296;28;20478;-82
2021/05/31 04:17:51;;;;;;;8.83;8.03;;;;;;;13.73;91.13;94788.97;5076294;28;20495;-82
2021/05/31 04:20:17;;;;;;;9.60;8.57;;;;;;;13.66;90.99;94788.75;5024789;28;20478;-82
2021/05/31 04:22:44;;;;;;;8.80;8.10;;;;;;;13.66;91.85;94782.66;5076054;28;20429;-82
2021/05/31 04:25:12;;;;;;;9.20;8.40;;;;;;;13.70;92.39;94786.66;5076050;28;20604;-84
2021/05/31 04:27:39;;;;;;;9.97;9.07;;;;;;;13.70;91.94;94794.56;5075810;28;20907;-84
2021/05/31 04:30:07;;;;;;;10.87;9.03;;;;;;;13.68;90.84;94796.53;5075931;28;21006;-84
2021/05/31 04:32:34;;;;;;;10.53;9.43;;;;;;;13.60;89.15;94792.00;5076080;28;20435;-84
2021/05/31 04:35:02;;;;;;;10.73;9.73;;;;;;;13.64;89.97;94798.63;5075845;28;20439;-85
2021/05/31 04:37:31;;;;;;;12.40;10.67;;;;;;;13.68;90.45;94789.44;5075669;28;20944;-82
2021/05/31 04:39:57;;;;;;;10.00;9.10;;;;;;;13.58;89.34;94792.13;5075941;28;20427;-82
2021/05/31 04:42:24;;;;;;;10.20;9.20;;;;;;;13.50;88.52;94784.16;5075855;28;20446;-83
2021/05/31 04:44:50;;;;;;;10.80;9.80;;;;;;;13.23;89.24;94797.38;5075877;28;20460;-83
2021/05/31 04:47:17;;;;;;;10.40;9.40;;;;;;;13.14;89.51;94787.72;5024148;28;20934;-82
2021/05/31 04:49:43;;;;;;;10.20;9.20;;;;;;;12.98;89.85;94781.28;5075653;28;20499;-82
2021/05/31 04:52:11;;;;;;;11.80;10.60;;;;;;;12.92;90.44;94781.88;5075269;28;20472;-82
2021/05/31 04:54:38;;;;;;;11.80;10.13;;;;;;;12.97;90.83;94786.69;5040416;28;20452;-83
2021/05/31 04:57:05;;;;;;;11.67;10.47;;;;;;;13.05;92.75;94785.97;5075935;28;20424;-85
2021/05/31 04:59:31;;;;;;;9.90;9.10;;;;;;;13.14;92.71;94779.81;5075538;28;20460;-84
2021/05/31 05:01:58;;;;;;;11.20;9.87;;;;;;;13.16;91.61;94783.13;5075526;28;20969;-84
2021/05/31 05:04:24;;;;;;;11.17;10.07;;;;;;;13.11;89.66;94774.84;5075621;28;20437;-84
2021/05/31 05:06:51;;;;;;;10.70;9.70;;;;;;;13.13;90.26;94775.53;5075773;28;20446;-84
2021/05/31 05:09:19;;;;;;;11.53;10.40;;;;;;;13.14;89.41;94779.81;5075528;28;20987;-87
2021/05/31 05:11:45;;;;;;;10.60;9.60;;;;;;;13.19;89.35;94772.31;5075230;28;20454;-82
2021/05/31 05:14:12;;;;;;;12.30;10.40;;;;;;;13.36;88.91;94774.16;5074856;28;20505;-80
2021/05/31 05:16:38;;;;;;;10.13;9.13;;;;;;;13.46;88.46;94782.81;5075128;28;20502;-81
2021/05/31 05:19:05;;;;;;;11.30;9.57;;;;;;;13.55;87.72;94779.25;5024077;28;20813;-84
2021/05/31 05:21:31;;;;;;;11.83;9.50;;;;;;;13.53;85.13;94783.03;5075238;28;20462;-85
2021/05/31 05:23:58;;;;;;;9.33;8.43;;;;;;;13.70;85.31;94784.00;5075576;28;20444;-86
2021/05/31 05:26:26;;;;;;;14.83;9.27;;;;;;;13.88;82.46;94779.56;5056369;28;20479;-84
2021/05/31 05:28:52;;;;;;;10.27;9.20;;;;;;;13.94;83.51;94787.69;5039832;28;20479;-84
2021/05/31 05:31:19;;;;;;;12.23;9.30;;;;;;;13.89;82.60;94792.59;5074828;28;20445;-83
2021/05/31 05:33:45;;;;;;;10.03;9.03;;;;;;;13.83;82.43;94797.63;5074912;28;20464;-85
2021/05/31 05:36:20;;;;;;;9.50;8.60;;;;;;;13.83;82.05;94793.19;5074954;28;20447;-86
2021/05/31 05:41:41;;;;;;;12.77;9.87;;;;;;;14.00;82.51;94793.31;5074664;28;20432;-85
2021/05/31 05:44:26;;;;;;;12.07;8.40;;;;;;;14.07;82.06;94799.63;5074937;28;20455;-84
2021/05/31 05:47:04;;;;;;;10.77;9.67;;;;;;;14.18;82.82;94794.97;5074313;28;20928;-84
2021/05/31 05:49:31;;;;;;;10.02;9.13;;;;;;;14.42;81.17;94793.44;5074150;28;20456;-84
2021/05/31 05:51:58;;;;;;;11.37;9.30;;;;;;;14.59;80.76;94792.59;5074386;28;20209;-84
2021/05/31 05:54:24;;;;;;;11.70;10.13;;;;;;;14.67;79.33;94792.63;5074348;28;20461;-83
2021/05/31 05:56:52;;;;;;;9.37;8.30;;;;;;;14.67;78.01;94792.63;5074163;28;20453;-85
2021/05/31 05:59:20;;;;;;;10.47;9.37;;;;;;;14.54;77.80;94794.88;5074215;28;20444;-83
2021/05/31 06:05:09;;;;;;;11.18;9.40;;;;;;;14.49;77.24;94797.16;5072629;28;20468;-86
2021/05/31 06:07:36;;;;;;;9.57;8.67;;;;;;;14.54;78.99;94790.44;5074276;28;20651;-83
2021/05/31 06:10:04;;;;;;;10.20;9.30;;;;;;;14.93;83.48;94797.03;5074170;28;20488;-84
2021/05/31 06:12:32;;;;;;;11.70;8.63;;;;;;;15.14;79.56;94795.66;5023212;28;20930;-84
2021/05/31 06:14:59;;;;;;;9.07;7.60;;;;;;;15.12;75.27;94786.22;5074556;28;20425;-82
2021/05/31 06:17:25;;;;;;;8.80;7.83;;;;;;;15.22;74.71;94794.84;5073679;28;20438;-82
2021/05/31 06:23:26;;;;;;;13.97;9.60;;;;;;;15.68;86.21;94779.44;5073874;28;20445;-84
2021/05/31 06:25:53;;;;;;;10.27;8.63;;;;;;;16.05;78.10;94782.44;5073579;28;20445;-84
2021/05/31 07:18:13;;;;;;;9.40;8.13;;;;;;;15.92;71.10;94770.69;5030196;28;20904;-86
2021/05/31 07:20:40;;;;;;;9.90;6.93;;;;;;;15.72;69.23;94772.84;5031212;28;20913;-87
2021/05/31 07:23:08;;;;;;;7.63;7.00;;;;;;;15.65;69.72;94772.66;5031444;28;20811;-87
2021/05/31 07:25:35;;;;;;;6.87;6.20;;;;;;;15.60;69.80;94763.53;5031192;28;20436;-88
2021/05/31 07:28:05;;;;;;;10.40;7.87;;;;;;;15.60;69.90;94760.91;5031352;28;20470;-86
2021/05/31 07:30:32;;;;;;;9.93;7.17;;;;;;;15.49;72.38;94770.78;5031349;28;20443;-87
2021/05/31 07:32:59;;;;;;;10.00;8.80;;;;;;;15.56;73.86;94759.53;5031234;28;20439;-84
2021/05/31 07:35:27;;;;;;;8.27;7.47;;;;;;;15.58;72.50;94773.44;5033002;28;20483;-86
2021/05/31 07:37:54;;;;;;;12.97;6.83;;;;;;;15.54;71.58;94769.47;5032513;28;20532;-86
2021/05/31 07:40:20;;;;;;;7.20;6.50;;;;;;;15.55;71.14;94766.66;5031473;28;20840;-85
2021/05/31 07:42:47;;;;;;;7.83;7.03;;;;;;;15.55;71.41;94766.66;5032663;28;20451;-87
2021/05/31 07:45:18;;;;;;;8.23;6.37;;;;;;;15.66;72.94;94761.09;5031396;28;20448;-84
2021/05/31 07:47:44;;;;;;;7.27;6.57;;;;;;;15.77;71.43;94767.88;4997611;28;20435;-84
2021/05/31 07:50:13;;;;;;;9.53;7.70;;;;;;;15.79;72.13;94755.31;5031091;28;20935;-84
2021/05/31 07:52:42;;;;;;;9.50;7.50;;;;;;;15.74;72.02;94754.97;5032322;28;20444;-83
2021/05/31 07:55:12;;;;;;;8.57;7.33;;;;;;;15.85;71.93;94751.16;5030932;28;20478;-86
2021/05/31 07:57:40;;;;;;;7.07;6.50;;;;;;;15.97;72.74;94755.97;5031460;28;20488;-86
2021/05/31 08:06:49;;;;;;;7.00;6.40;;;;;;;16.01;68.49;94746.69;5003339;28;20425;-85
2021/05/31 08:09:17;;;;;;;7.40;6.00;;;;;;;16.11;69.93;94752.63;4997932;28;20497;-86
2021/05/31 08:11:44;;;;;;;8.53;6.43;;;;;;;16.26;69.25;94749.31;4998202;28;20453;-86
2021/05/31 08:14:11;;;;;;;5.77;5.27;;;;;;;16.39;66.94;94752.28;4997900;28;20516;-86
2021/05/31 08:16:37;;;;;;;5.30;4.90;;;;;;;16.51;67.72;94752.75;4963964;28;20486;-86
2021/05/31 08:19:04;;;;;;;7.03;6.43;;;;;;;16.65;67.36;94755.50;4997667;28;20436;-86
2021/05/31 08:21:31;;;;;;;7.13;6.53;;;;;;;16.76;68.03;94750.88;4997554;28;20440;-86
2021/05/31 08:23:57;;;;;;;7.10;6.13;;;;;;;16.85;66.44;94753.34;4997739;28;20468;-84
2021/05/31 08:26:25;;;;;;;7.00;6.30;;;;;;;16.93;64.65;94758.59;4998172;28;20443;-86
2021/05/31 08:28:52;;;;;;;7.87;5.73;;;;;;;16.99;63.77;94754.41;4997741;28;20795;-86
2021/05/31 08:31:19;;;;;;;8.57;6.57;;;;;;;17.07;63.83;94759.72;4997561;28;20451;-86
2021/05/31 08:33:47;;;;;;;6.93;6.23;;;;;;;16.97;63.38;94749.28;4997826;28;20456;-86
2021/05/31 08:36:15;;;;;;;6.70;6.10;;;;;;;17.03;63.31;94753.91;4998010;28;20964;-84
2021/05/31 08:45:29;;;;;;;6.10;5.60;;;;;;;17.29;61.90;94748.31;4996316;28;20517;-85
2021/05/31 08:47:56;;;;;;;5.77;5.00;;;;;;;17.42;62.18;94737.13;4997057;28;20787;-85
2021/05/31 08:50:25;;;;;;;5.50;5.00;;;;;;;17.43;61.47;94732.66;4996940;28;20452;-83
2021/05/31 08:52:53;;;;;;;5.73;5.13;;;;;;;17.42;60.68;94744.28;4996706;28;20448;-86
2021/05/31 08:58:41;;;;;;;6.13;5.53;;;;;;;17.46;61.46;94733.13;4995710;28;20448;-86
2021/05/31 09:01:09;;;;;;;7.00;5.73;;;;;;;17.51;62.20;94727.28;4996797;28;20441;-85
2021/05/31 09:03:36;;;;;;;9.20;6.23;;;;;;;17.33;59.48;94727.56;4996647;28;20457;-86
2021/05/31 09:06:09;;;;;;;7.93;5.80;;;;;;;17.26;61.78;94727.44;4996774;28;21250;-85
2021/05/31 09:11:57;;;;;;;6.63;5.70;;;;;;;17.01;61.90;94721.44;4995690;28;20439;-84
2021/05/31 09:14:25;;;;;;;5.23;4.77;;;;;;;16.97;62.53;94721.97;4996634;28;20498;-84
2021/05/31 09:16:53;;;;;;;5.77;5.27;;;;;;;16.93;64.02;94723.31;4996121;28;20476;-85
2021/05/31 09:19:20;;;;;;;8.00;5.63;;;;;;;16.99;64.77;94730.56;4995204;28;20436;-85
2021/05/31 09:21:47;;;;;;;6.03;5.57;;;;;;;17.05;66.91;94724.56;4996317;28;20447;-85
2021/05/31 09:24:19;;;;;;;12.90;5.50;;;;;;;16.96;63.57;94726.44;4996455;28;20928;-87
2021/05/31 09:33:30;;;;;;;5.40;5.00;;;;;;;17.08;63.37;94723.41;4995276;28;20481;-84
2021/05/31 09:36:07;;;;;;;14.27;5.80;;;;;;;17.06;62.32;94726.25;4995913;28;20475;-84
2021/05/31 09:38:34;;;;;;;6.77;6.17;;;;;;;17.10;61.53;94716.94;4996636;28;20468;-85
2021/05/31 09:41:00;;;;;;;6.17;5.57;;;;;;;17.24;62.98;94713.53;4995854;28;20487;-85
2021/05/31 09:43:31;;;;;;;6.10;5.60;;;;;;;17.21;60.85;94721.00;4996181;28;20505;-85
2021/05/31 09:45:58;;;;;;;15.73;5.60;;;;;;;17.27;64.40;94710.53;4996807;28;20855;-84
2021/05/31 09:48:34;;;;;;;6.03;5.37;;;;;;;17.29;61.96;94705.88;4995549;28;20977;-86
2021/05/31 09:51:01;;;;;;;5.40;5.00;;;;;;;17.18;60.10;94706.28;4996541;28;20486;-85
2021/05/31 09:53:36;;;;;;;7.13;6.40;;;;;;;17.32;61.71;94704.69;4995625;28;20454;-84
2021/05/31 09:56:13;;;;;;;6.50;4.70;;;;;;;17.40;59.67;94717.09;4995545;28;20499;-84
2021/05/31 09:58:52;;;;;;;5.50;5.10;;;;;;;17.58;60.60;94709.66;4977463;28;20453;-85
2021/05/31 10:01:34;;;;;;;5.17;4.77;;;;;;;17.70;59.84;94704.81;4997461;28;20452;-85
2021/05/31 10:04:22;;;;;;;10.50;6.57;;;;;;;17.76;59.72;94707.56;4981508;28;20448;-86
2021/05/31 10:06:51;;;;;;;18.00;7.00;;;;;;;17.89;59.44;94697.16;4980367;28;20457;-85
2021/05/31 10:09:18;;;;;;;4.80;4.50;;;;;;;17.91;58.18;94700.44;4975681;28;20441;-86
2021/05/31 10:11:45;;;;;;;4.60;4.20;;;;;;;17.89;58.57;94691.84;4975887;28;20917;-85
2021/05/31 10:14:15;;;;;;;6.13;4.40;;;;;;;18.05;58.89;94684.75;4976142;28;20516;-85
2021/05/31 10:16:42;;;;;;;4.90;4.50;;;;;;;18.24;59.41;94682.41;4975994;28;20497;-85
2021/05/31 10:19:11;;;;;;;5.40;5.00;;;;;;;18.45;57.49;94678.19;4976048;28;20453;-85
2021/05/31 10:21:37;;;;;;;4.77;4.40;;;;;;;18.57;58.42;94682.88;4958093;28;20455;-85
2021/05/31 10:24:05;;;;;;;5.30;4.90;;;;;;;18.61;57.15;94671.88;4975924;28;20435;-86
2021/05/31 10:26:36;;;;;;;4.77;4.37;;;;;;;18.69;56.92;94674.44;4975947;28;20451;-85
2021/05/31 10:29:02;;;;;;;4.60;4.27;;;;;;;18.67;56.22;94671.16;4975472;28;21057;-86
2021/05/31 10:31:39;;;;;;;5.10;4.43;;;;;;;18.52;56.08;94661.34;4975729;28;20451;-84
2021/05/31 10:34:06;;;;;;;185.10;24.30;;;;;;;18.53;55.81;94668.31;4975620;28;20455;-85
2021/05/31 10:36:35;;;;;;;8.63;5.10;;;;;;;18.36;56.88;94666.00;4975931;28;20494;-85
2021/05/31 10:39:05;;;;;;;5.40;3.70;;;;;;;18.21;55.08;94668.63;4957085;28;20497;-85
2021/05/31 10:41:32;;;;;;;10.70;4.60;;;;;;;18.23;56.71;94667.47;4975323;28;20938;-86
2021/05/31 10:44:00;;;;;;;5.20;4.70;;;;;;;18.20;54.54;94664.31;4957976;28;21212;-84
2021/05/31 10:46:29;;;;;;;8.13;4.97;;;;;;;18.09;54.81;94660.31;4975747;28;20521;-85
2021/05/31 10:48:56;;;;;;;3.87;3.57;;;;;;;18.10;55.36;94655.81;4975656;28;20456;-85
2021/05/31 10:51:25;;;;;;;5.27;4.77;;;;;;;18.17;56.56;94646.09;4975389;28;20453;-85
2021/05/31 10:53:54;;;;;;;4.37;4.07;;;;;;;18.19;55.66;94649.41;4975094;28;20463;-84
2021/05/31 10:56:26;;;;;;;4.63;3.87;;;;;;;18.18;54.15;94653.06;4975359;28;20540;-85
2021/05/31 10:58:55;;;;;;;10.00;4.10;;;;;;;18.28;56.30;94643.00;4975639;28;20454;-85
2021/05/31 11:01:34;;;;;;;3.50;3.30;;;;;;;18.30;55.06;94642.84;4975563;28;20451;-85
2021/05/31 11:04:03;;;;;;;5.27;3.80;;;;;;;18.39;54.55;94642.53;4957629;28;20482;-86
2021/05/31 11:06:34;;;;;;;3.90;3.60;;;;;;;18.36;52.60;94647.41;4975460;28;20442;-87
2021/05/31 11:09:08;;;;;;;4.33;4.00;;;;;;;18.35;55.62;94635.94;4975660;28;20439;-84
2021/05/31 11:11:37;;;;;;;5.83;3.83;;;;;;;18.34;54.38;94639.63;4973112;28;20449;-85
2021/05/31 11:14:06;;;;;;;6.37;3.77;;;;;;;18.54;54.26;94638.06;4975324;28;20442;-90
2021/05/31 11:16:34;;;;;;;6.07;4.10;;;;;;;18.71;53.10;94632.56;4975920;28;20499;-83
2021/05/31 11:19:03;;;;;;;4.67;3.80;;;;;;;18.76;53.48;94625.66;4975581;28;20451;-85
2021/05/31 11:21:32;;;;;;;5.83;4.17;;;;;;;18.68;52.23;94628.44;4982655;28;20477;-85
2021/05/31 11:24:01;;;;;;;10.93;3.67;;;;;;;18.70;53.76;94622.94;4977121;28;20450;-85
2021/05/31 11:26:34;;;;;;;4.53;4.23;;;;;;;18.53;51.99;94630.28;4994766;28;20437;-85
2021/05/31 11:29:03;;;;;;;4.67;3.90;;;;;;;18.49;52.76;94619.16;4994342;28;20445;-85
2021/05/31 11:31:30;;;;;;;8.57;4.93;;;;;;;18.45;53.29;94615.22;4994584;28;20815;-84
2021/05/31 11:33:57;;;;;;;3.87;3.57;;;;;;;18.46;54.42;94624.84;4994621;28;20453;-84
2021/05/31 11:36:36;;;;;;;3.77;3.50;;;;;;;18.17;50.92;94620.38;4994611;28;20853;-84
2021/05/31 11:39:07;;;;;;;4.87;4.53;;;;;;;18.17;51.80;94620.38;4994493;28;20449;-85
2021/05/31 11:41:40;;;;;;;3.73;3.53;;;;;;;18.13;52.60;94615.63;4995865;28;20444;-84
2021/05/31 11:44:08;;;;;;;4.43;3.50;;;;;;;18.08;53.61;94612.69;4998398;28;20527;-85
2021/05/31 11:46:49;;;;;;;10.53;3.30;;;;;;;17.88;54.95;94620.34;4997706;28;20452;-84
2021/05/31 11:49:16;;;;;;;4.37;3.30;;;;;;;17.66;54.26;94619.38;4980315;28;20447;-83
2021/05/31 11:51:42;;;;;;;9.63;3.47;;;;;;;17.58;55.73;94619.44;4998064;28;20436;-85
2021/05/31 11:54:12;;;;;;;2.97;2.73;;;;;;;17.41;53.79;94617.94;4997916;28;20594;-84
2021/05/31 11:56:40;;;;;;;2.87;2.67;;;;;;;17.29;50.43;94621.00;4997712;28;20475;-84
2021/05/31 11:59:09;;;;;;;2.43;2.33;;;;;;;17.16;52.03;94623.44;4979661;28;20506;-85
2021/05/31 12:01:36;;;;;;;3.17;2.87;;;;;;;16.91;54.07;94628.06;4998018;28;20472;-85
2021/05/31 12:04:04;;;;;;;4.03;2.90;;;;;;;16.90;55.73;94626.41;4963712;28;20506;-83
2021/05/31 12:06:31;;;;;;;4.73;3.20;;;;;;;16.71;54.20;94622.38;4963750;28;20475;-85
2021/05/31 12:08:57;;;;;;;3.90;2.60;;;;;;;16.61;52.88;94636.81;4998003;28;20450;-85
2021/05/31 12:11:25;;;;;;;6.03;2.40;;;;;;;16.39;52.74;94630.44;4998723;28;20500;-83
2021/05/31 12:14:02;;;;;;;5.63;2.50;;;;;;;16.35;53.61;94637.09;4997502;28;20497;-84
2021/05/31 12:16:28;;;;;;;3.50;2.33;;;;;;;16.33;54.26;94631.13;4997364;28;20948;-84
2021/05/31 12:18:55;;;;;;;6.70;2.40;;;;;;;16.35;51.99;94631.78;4963790;28;20446;-85
2021/05/31 12:21:22;;;;;;;3.33;2.23;;;;;;;16.35;53.11;94639.72;4997492;28;20433;-84
2021/05/31 12:23:49;;;;;;;2.43;2.13;;;;;;;16.35;53.23;94634.44;4956466;28;20451;-84
2021/05/31 12:26:20;;;;;;;6.23;2.20;;;;;;;16.29;57.27;94616.59;4979393;28;20457;-85
2021/05/31 12:28:47;;;;;;;2.80;2.60;;;;;;;16.28;53.76;94631.66;4996932;28;20455;-86
2021/05/31 12:31:15;;;;;;;2.90;2.07;;;;;;;16.19;53.98;94631.84;4997510;28;20439;-84
2021/05/31 12:33:42;;;;;;;3.00;2.30;;;;;;;16.13;56.16;94612.16;4997161;28;20446;-83
2021/05/31 12:36:10;;;;;;;2.57;2.37;;;;;;;16.17;55.81;94628.53;4997478;28;20522;-84
2021/05/31 12:38:39;;;;;;;2.83;2.57;;;;;;;16.20;56.90;94617.63;4963160;28;20440;-85
2021/05/31 12:41:06;;;;;;;3.20;2.90;;;;;;;16.35;57.21;94615.91;4997364;28;20492;-84
2021/05/31 12:43:34;;;;;;;2.60;2.40;;;;;;;16.53;56.74;94611.19;4975760;28;20473;-84
2021/05/31 12:46:01;;;;;;;4.97;2.87;;;;;;;16.66;56.08;94613.31;4997683;28;20431;-84
2021/05/31 12:48:29;;;;;;;4.80;2.60;;;;;;;16.72;53.42;94615.25;4996629;28;20452;-85
2021/05/31 12:51:12;;;;;;;2.43;2.20;;;;;;;16.80;53.05;94615.22;4997046;28;20459;-84
2021/05/31 12:53:39;;;;;;;3.97;3.10;;;;;;;16.92;55.44;94605.84;4996873;28;20431;-85
2021/05/31 12:56:07;;;;;;;2.93;2.73;;;;;;;16.99;56.35;94608.63;4996786;28;20821;-85
2021/05/31 12:58:33;;;;;;;6.27;2.63;;;;;;;17.08;52.90;94612.88;4996622;28;20437;-85
2021/05/31 13:01:00;;;;;;;4.00;3.70;;;;;;;16.98;53.47;94596.38;4996855;28;20840;-85
2021/05/31 13:20:39;;;;;;;9.97;5.00;;;;;;;17.55;50.39;94588.78;4996655;28;20801;-85
2021/05/31 13:23:09;;;;;;;17.80;7.30;;;;;;;17.53;49.15;94590.78;4996563;28;20433;-85
2021/05/31 13:25:36;;;;;;;9.20;6.50;;;;;;;17.58;49.83;94599.03;4963003;28;20979;-85